Time;durP1;ratioP1;P1;durP2;ratioP2;P2;SDS_P1;SDS_P2;PMS_P1;PMS_P2;Temp;Humidity;BMP_temperature;BMP_pressure;BME280_temperature;BME280_humidity;BME280_pressure;Samples;Min_cycle;Max_cycle;Signal;HPM_P1;HPM_P2
2022/01/29 00:01:05;;;;;;;47.97;22.63;;;7.10;99.90;;;;;;5057400;28;20044;-87
2022/01/29 00:03:31;;;;;;;39.33;20.63;;;7.10;99.90;;;;;;5037518;28;20042;-87
2022/01/29 00:05:58;;;;;;;45.40;22.23;;;7.10;99.90;;;;;;5042055;28;20039;-87
2022/01/29 00:08:24;;;;;;;48.35;22.27;;;7.10;99.90;;;;;;5041299;28;20071;-87
2022/01/29 00:10:55;;;;;;;49.85;24.45;;;7.10;99.90;;;;;;5062249;28;20059;-87
2022/01/29 00:13:21;;;;;;;52.47;23.80;;;7.10;99.90;;;;;;5057420;28;20422;-87
2022/01/29 00:15:46;;;;;;;49.83;25.13;;;7.10;99.90;;;;;;5063304;28;20032;-87
2022/01/29 00:18:12;;;;;;;49.47;25.98;;;7.10;99.90;;;;;;5045863;28;20040;-87
2022/01/29 00:20:38;;;;;;;54.45;26.45;;;7.10;99.90;;;;;;5052533;28;20414;-88
2022/01/29 00:23:04;;;;;;;54.20;27.20;;;7.10;99.90;;;;;;5036312;28;20036;-86
2022/01/29 00:25:29;;;;;;;54.95;27.13;;;7.10;99.90;;;;;;5056613;28;20054;-87
2022/01/29 00:27:57;;;;;;;58.47;27.20;;;7.10;99.90;;;;;;5038362;28;20075;-87
2022/01/29 00:30:29;;;;;;;57.28;27.27;;;7.00;99.90;;;;;;5068719;28;20072;-87
2022/01/29 00:32:55;;;;;;;56.40;28.52;;;7.00;99.90;;;;;;5060575;28;20578;-87
2022/01/29 00:35:21;;;;;;;64.10;30.23;;;7.00;99.90;;;;;;5038344;28;20072;-88
2022/01/29 00:37:47;;;;;;;60.17;31.33;;;7.00;99.90;;;;;;5044910;28;20039;-87
2022/01/29 00:40:13;;;;;;;63.05;30.65;;;7.00;99.90;;;;;;5067599;28;20140;-87
2022/01/29 00:42:39;;;;;;;62.53;32.92;;;7.00;99.90;;;;;;5046635;28;20064;-87
2022/01/29 00:45:06;;;;;;;69.43;34.20;;;7.00;99.90;;;;;;5063741;28;20584;-87
2022/01/29 00:47:32;;;;;;;63.50;32.85;;;7.00;99.90;;;;;;5067417;28;20083;-87
2022/01/29 00:49:58;;;;;;;66.32;33.72;;;6.90;99.90;;;;;;5045394;28;20040;-87
2022/01/29 00:52:23;;;;;;;70.32;34.85;;;6.90;99.90;;;;;;5074016;28;20044;-87
2022/01/29 00:54:49;;;;;;;75.82;35.15;;;6.90;99.90;;;;;;5059483;28;20502;-87
2022/01/29 00:57:15;;;;;;;72.95;35.33;;;6.90;99.90;;;;;;5055382;28;20035;-87
2022/01/29 00:59:41;;;;;;;74.60;35.72;;;6.90;99.90;;;;;;5052428;28;20028;-87
2022/01/29 01:02:08;;;;;;;72.45;34.67;;;6.90;99.90;;;;;;5059370;28;20503;-87
2022/01/29 01:04:39;;;;;;;73.85;34.17;;;6.90;99.90;;;;;;5063095;28;20094;-87
2022/01/29 01:07:06;;;;;;;74.15;34.22;;;6.90;99.90;;;;;;5048987;28;20074;-87
2022/01/29 01:09:32;;;;;;;70.07;34.63;;;6.80;99.90;;;;;;5062962;28;20047;-87
2022/01/29 01:11:57;;;;;;;70.30;34.80;;;6.80;99.90;;;;;;5032675;28;20028;-87
2022/01/29 01:14:23;;;;;;;76.00;34.25;;;6.90;99.90;;;;;;5063003;28;20072;-87
2022/01/29 01:16:49;;;;;;;69.30;33.30;;;6.90;99.90;;;;;;5040892;28;20506;-87
2022/01/29 01:19:14;;;;;;;75.07;34.35;;;6.80;99.90;;;;;;5049107;28;20522;-87
2022/01/29 01:21:40;;;;;;;73.93;34.05;;;6.90;99.90;;;;;;5090523;28;20044;-87
2022/01/29 01:24:06;;;;;;;76.80;34.55;;;6.90;99.90;;;;;;5039729;28;20032;-86
2022/01/29 01:26:31;;;;;;;69.30;32.60;;;6.90;99.90;;;;;;5046051;28;20033;-87
2022/01/29 01:28:57;;;;;;;68.00;32.75;;;6.90;99.90;;;;;;5063293;28;20118;-86
2022/01/29 01:31:23;;;;;;;70.50;33.85;;;6.90;99.90;;;;;;5046036;28;20040;-86
2022/01/29 01:33:50;;;;;;;69.57;33.85;;;6.90;99.90;;;;;;5048521;28;20035;-87
2022/01/29 01:36:19;;;;;;;68.15;32.53;;;6.90;99.90;;;;;;5048690;28;20050;-86
2022/01/29 01:38:52;;;;;;;70.50;32.03;;;6.90;99.90;;;;;;5051118;28;20032;-86
2022/01/29 01:41:23;;;;;;;66.55;30.65;;;6.90;99.90;;;;;;5049319;28;20080;-87
2022/01/29 01:43:49;;;;;;;65.45;30.98;;;6.90;99.90;;;;;;5065763;28;20431;-86
2022/01/29 01:46:14;;;;;;;69.40;32.33;;;6.90;99.90;;;;;;5042325;28;20032;-86
2022/01/29 01:48:40;;;;;;;69.38;31.30;;;7.00;99.90;;;;;;5031526;28;20036;-87
2022/01/29 01:51:06;;;;;;;69.25;32.55;;;7.00;99.90;;;;;;5059596;28;20032;-87
2022/01/29 01:53:32;;;;;;;65.15;31.27;;;7.00;99.90;;;;;;5068265;28;20077;-87
2022/01/29 01:55:58;;;;;;;71.53;31.98;;;7.00;99.90;;;;;;5040120;28;20036;-86
2022/01/29 01:58:30;;;;;;;73.43;31.55;;;7.00;99.90;;;;;;5055736;28;20050;-86
2022/01/29 02:00:55;;;;;;;71.57;31.65;;;7.00;99.90;;;;;;5043770;28;20141;-86
2022/01/29 02:03:21;;;;;;;66.30;32.00;;;7.00;99.90;;;;;;5083372;28;20476;-86
2022/01/29 02:05:48;;;;;;;68.80;31.88;;;7.00;99.90;;;;;;5065305;28;20032;-87
2022/01/29 02:08:15;;;;;;;70.72;31.58;;;7.10;99.90;;;;;;5037122;28;20423;-86
2022/01/29 02:10:45;;;;;;;69.65;30.20;;;7.10;99.90;;;;;;5050440;28;20079;-86
2022/01/29 02:13:12;;;;;;;75.75;33.20;;;7.10;99.90;;;;;;5069778;28;20056;-87
2022/01/29 02:15:37;;;;;;;73.90;31.20;;;7.10;99.90;;;;;;5053525;28;20042;-87
2022/01/29 02:18:04;;;;;;;69.63;31.17;;;7.10;99.90;;;;;;5073524;28;20036;-86
2022/01/29 02:20:34;;;;;;;79.60;33.05;;;7.10;99.90;;;;;;5073353;28;20040;-86
2022/01/29 02:23:02;;;;;;;74.78;33.08;;;7.10;99.90;;;;;;5086874;28;20032;-87
2022/01/29 02:25:38;;;;;;;81.03;32.90;;;7.10;99.90;;;;;;5071924;28;20749;-86
2022/01/29 02:28:05;;;;;;;;;;;7.10;99.90;;;;;;5071349;28;20063;-87
2022/01/29 02:30:33;;;;;;;77.47;34.45;;;7.10;99.90;;;;;;5055221;28;20694;-87
2022/01/29 02:33:00;;;;;;;80.13;32.72;;;7.20;99.90;;;;;;5103711;28;20051;-87
2022/01/29 02:35:27;;;;;;;81.47;32.67;;;7.10;99.90;;;;;;5058186;28;20564;-86
2022/01/29 02:37:55;;;;;;;90.13;35.05;;;7.20;99.90;;;;;;5054062;28;20044;-87
2022/01/29 02:40:25;;;;;;;78.65;34.17;;;7.20;99.90;;;;;;5075757;28;20040;-87
2022/01/29 02:42:55;;;;;;;81.30;34.40;;;7.20;99.90;;;;;;5053977;28;20043;-86
2022/01/29 02:45:21;;;;;;;77.53;32.90;;;7.20;99.90;;;;;;5056843;28;20487;-86
2022/01/29 02:47:49;;;;;;;77.03;33.95;;;7.20;99.90;;;;;;5074270;28;20040;-86
2022/01/29 02:50:14;;;;;;;79.78;34.40;;;7.20;99.90;;;;;;5075991;28;20042;-86
2022/01/29 02:52:40;;;;;;;80.03;32.90;;;7.20;99.90;;;;;;5066906;28;20036;-87
2022/01/29 02:55:07;;;;;;;84.30;33.35;;;7.20;99.90;;;;;;5056896;28;20059;-86
2022/01/29 02:57:32;;;;;;;78.05;31.40;;;7.20;99.90;;;;;;5072561;28;20521;-86
2022/01/29 03:00:00;;;;;;;79.80;32.92;;;7.30;99.90;;;;;;5075201;28;20040;-87
2022/01/29 03:02:29;;;;;;;79.65;33.65;;;7.30;99.90;;;;;;5055745;28;20032;-87
2022/01/29 03:04:56;;;;;;;78.43;32.90;;;7.30;99.90;;;;;;5066502;28;20747;-87
2022/01/29 03:07:23;;;;;;;76.90;31.52;;;7.30;99.90;;;;;;5053494;28;20024;-87
2022/01/29 03:09:49;;;;;;;79.57;31.40;;;7.30;99.90;;;;;;5055782;28;20069;-87
2022/01/29 03:12:14;;;;;;;69.47;30.05;;;7.40;99.90;;;;;;5090392;28;20077;-87
2022/01/29 03:14:40;;;;;;;69.47;29.60;;;7.40;99.90;;;;;;5107059;28;20038;-87
2022/01/29 03:17:05;;;;;;;71.60;29.67;;;7.40;99.90;;;;;;5074303;28;20518;-86
2022/01/29 03:19:31;;;;;;;65.25;29.20;;;7.40;99.90;;;;;;5090105;28;20075;-86
2022/01/29 03:21:57;;;;;;;71.68;29.40;;;7.40;99.90;;;;;;5074768;28;20032;-86
2022/01/29 03:24:24;;;;;;;67.55;27.85;;;7.50;99.90;;;;;;5093357;28;20036;-86
2022/01/29 03:26:50;;;;;;;72.43;29.13;;;7.50;99.90;;;;;;5092853;28;20118;-87
2022/01/29 03:29:15;;;;;;;68.75;27.33;;;7.50;99.90;;;;;;5075479;28;20131;-87
2022/01/29 03:31:41;;;;;;;72.50;27.85;;;7.50;99.90;;;;;;5091165;28;20042;-87
2022/01/29 03:34:07;;;;;;;61.60;26.63;;;7.60;99.90;;;;;;5075638;28;20036;-87
2022/01/29 03:36:33;;;;;;;60.72;23.60;;;7.60;99.90;;;;;;5080037;28;20055;-87
2022/01/29 03:39:00;;;;;;;69.00;27.55;;;7.60;99.90;;;;;;5120300;27;20039;-87
2022/01/29 03:41:26;;;;;;;62.95;26.20;;;7.60;99.90;;;;;;5071809;28;20027;-87
2022/01/29 03:43:54;;;;;;;61.92;26.02;;;7.70;99.90;;;;;;5089210;28;20463;-87
2022/01/29 03:46:19;;;;;;;66.25;26.17;;;7.70;99.90;;;;;;5089473;28;20028;-87
2022/01/29 03:48:45;;;;;;;57.58;25.55;;;7.70;99.90;;;;;;5071793;28;20118;-87
2022/01/29 03:51:11;;;;;;;59.40;25.45;;;7.80;99.90;;;;;;5089523;28;20383;-87
2022/01/29 03:53:36;;;;;;;65.70;28.00;;;7.80;99.90;;;;;;5072191;28;20089;-87
2022/01/29 03:56:02;;;;;;;65.07;24.63;;;7.80;99.90;;;;;;5086673;28;20919;-86
2022/01/29 03:58:27;;;;;;;58.88;26.25;;;7.80;99.90;;;;;;5088915;28;20127;-87
2022/01/29 04:00:53;;;;;;;60.72;26.98;;;7.80;99.90;;;;;;5072215;28;20494;-86
2022/01/29 04:03:19;;;;;;;60.28;25.75;;;7.80;99.90;;;;;;5074319;28;20043;-87
2022/01/29 04:05:44;;;;;;;55.90;25.27;;;7.80;99.90;;;;;;5089324;28;20031;-87
2022/01/29 04:08:16;;;;;;;68.85;26.98;;;7.80;99.90;;;;;;5070208;28;20039;-87
2022/01/29 04:10:42;;;;;;;62.35;25.52;;;7.80;99.90;;;;;;5068432;28;20522;-87
2022/01/29 04:13:13;;;;;;;65.30;27.25;;;7.90;99.90;;;;;;5090406;28;20051;-87
2022/01/29 04:15:38;;;;;;;57.05;25.05;;;7.90;99.90;;;;;;5072487;28;20442;-88
2022/01/29 04:18:04;;;;;;;58.67;25.63;;;7.90;99.90;;;;;;5070643;28;20051;-87
2022/01/29 04:20:30;;;;;;;59.78;26.27;;;7.90;99.90;;;;;;5072081;28;20032;-87
2022/01/29 04:22:57;;;;;;;54.97;26.45;;;7.90;99.90;;;;;;5070188;28;20161;-87
2022/01/29 04:25:23;;;;;;;59.40;26.23;;;7.90;99.90;;;;;;5086207;28;20047;-87
2022/01/29 04:27:49;;;;;;;57.30;25.60;;;7.90;99.90;;;;;;5101597;28;20040;-86
2022/01/29 04:30:28;;;;;;;56.53;25.48;;;7.90;99.90;;;;;;5087997;28;20035;-86
2022/01/29 04:32:59;;;;;;;51.97;24.13;;;7.90;99.90;;;;;;5087469;28;20043;-87
2022/01/29 04:35:26;;;;;;;58.80;26.38;;;7.90;99.90;;;;;;5069706;27;20036;-87
2022/01/29 04:37:51;;;;;;;60.00;25.58;;;7.90;99.90;;;;;;5075669;28;20063;-88
2022/01/29 04:40:18;;;;;;;52.83;24.52;;;7.90;99.90;;;;;;5092250;28;20513;-88
2022/01/29 04:42:44;;;;;;;57.42;25.40;;;7.90;99.90;;;;;;5090624;28;20119;-87
2022/01/29 04:45:10;;;;;;;57.90;25.05;;;7.90;99.90;;;;;;5074611;28;20122;-87
2022/01/29 04:47:36;;;;;;;53.97;25.60;;;7.90;99.90;;;;;;5073401;28;20031;-87
2022/01/29 04:50:02;;;;;;;61.63;26.05;;;7.90;99.90;;;;;;5072843;28;20051;-87
2022/01/29 04:52:27;;;;;;;56.88;23.77;;;7.90;99.90;;;;;;5077912;28;20047;-87
2022/01/29 04:54:53;;;;;;;50.25;24.65;;;8.00;99.90;;;;;;5093884;27;20490;-87
2022/01/29 04:57:19;;;;;;;53.42;24.42;;;8.00;99.90;;;;;;5110217;28;20044;-87
2022/01/29 04:59:44;;;;;;;47.58;23.23;;;8.00;99.90;;;;;;5093831;27;20055;-87
2022/01/29 05:02:12;;;;;;;49.17;24.00;;;8.00;99.90;;;;;;5078366;27;20444;-87
2022/01/29 05:04:37;;;;;;;46.35;24.10;;;8.00;99.90;;;;;;5093470;28;20043;-87
2022/01/29 05:07:03;;;;;;;50.15;23.95;;;8.00;99.90;;;;;;5076377;28;20039;-87
2022/01/29 05:09:29;;;;;;;56.47;24.27;;;8.00;99.90;;;;;;5072969;28;20034;-87
2022/01/29 05:11:56;;;;;;;58.20;25.17;;;8.10;99.90;;;;;;5090087;28;20040;-87
2022/01/29 05:28:11;;;;;;;43.20;22.77;;;8.10;99.90;;;;;;5070544;28;20043;-87
2022/01/29 05:30:36;;;;;;;46.08;22.67;;;8.10;99.90;;;;;;5105564;28;20829;-88
2022/01/29 05:33:02;;;;;;;47.70;22.38;;;8.10;99.90;;;;;;5071681;28;20043;-87
2022/01/29 05:35:27;;;;;;;49.22;22.40;;;8.10;99.90;;;;;;5090458;28;20482;-87
2022/01/29 05:37:54;;;;;;;48.42;21.95;;;8.10;99.90;;;;;;5074593;28;20036;-86
2022/01/29 05:40:19;;;;;;;47.53;23.73;;;8.10;99.90;;;;;;5071534;28;20040;-87
2022/01/29 05:42:45;;;;;;;41.20;21.05;;;8.20;99.90;;;;;;5087059;28;20043;-87
2022/01/29 05:45:11;;;;;;;43.33;22.92;;;8.10;99.90;;;;;;5069857;28;20499;-87
2022/01/29 05:47:36;;;;;;;42.58;21.65;;;8.20;99.90;;;;;;5085267;28;20473;-86
2022/01/29 05:50:04;;;;;;;40.08;21.88;;;8.20;99.90;;;;;;5072936;28;20046;-87
2022/01/29 05:52:29;;;;;;;46.45;21.27;;;8.20;99.90;;;;;;5084902;28;20113;-88
2022/01/29 05:54:55;;;;;;;41.80;21.02;;;8.20;99.90;;;;;;5071765;28;20079;-87
2022/01/29 05:57:20;;;;;;;49.38;22.10;;;8.20;99.90;;;;;;5072202;28;20032;-86
2022/01/29 05:59:46;;;;;;;41.83;22.10;;;8.20;99.90;;;;;;5091897;28;20444;-87
2022/01/29 06:02:11;;;;;;;43.90;21.40;;;8.20;99.90;;;;;;5088805;28;20112;-88
2022/01/29 06:04:37;;;;;;;38.95;20.23;;;8.20;99.90;;;;;;5085447;28;20479;-87
2022/01/29 06:07:03;;;;;;;45.00;21.17;;;8.20;99.90;;;;;;5090617;28;20110;-87
2022/01/29 06:09:28;;;;;;;46.35;21.42;;;8.20;99.90;;;;;;5091700;28;20409;-88
2022/01/29 06:11:54;;;;;;;37.17;20.58;;;8.30;99.90;;;;;;5056181;28;20056;-87
2022/01/29 06:14:20;;;;;;;37.90;20.42;;;8.20;99.90;;;;;;5051336;28;20404;-87
2022/01/29 06:16:46;;;;;;;37.35;19.27;;;8.20;99.90;;;;;;5044744;28;20033;-87
2022/01/29 06:19:11;;;;;;;47.88;20.23;;;8.30;99.90;;;;;;5037749;28;20535;-88
2022/01/29 06:21:37;;;;;;;41.40;20.95;;;8.30;99.90;;;;;;5039087;28;20064;-86
2022/01/29 06:24:03;;;;;;;42.45;20.55;;;8.30;99.90;;;;;;5033762;28;20500;-87
2022/01/29 06:26:28;;;;;;;38.75;19.77;;;8.30;99.90;;;;;;5039966;28;20418;-87
2022/01/29 06:28:54;;;;;;;37.55;18.17;;;8.30;99.90;;;;;;5046530;28;20480;-87
2022/01/29 06:31:20;;;;;;;38.35;19.15;;;8.30;99.90;;;;;;5057955;28;20479;-86
2022/01/29 06:33:45;;;;;;;37.55;18.05;;;8.30;99.90;;;;;;5048439;28;20040;-87
2022/01/29 06:36:11;;;;;;;36.72;17.88;;;8.30;99.90;;;;;;5046464;28;20041;-86
2022/01/29 06:38:37;;;;;;;37.33;17.75;;;8.30;99.90;;;;;;5044352;28;20043;-87
2022/01/29 06:41:03;;;;;;;31.85;17.33;;;8.40;99.90;;;;;;5039273;28;20032;-87
2022/01/29 06:43:29;;;;;;;32.63;17.30;;;8.40;99.90;;;;;;5046005;28;20464;-87
2022/01/29 06:45:55;;;;;;;36.33;16.77;;;8.40;99.90;;;;;;5067294;28;20060;-87
2022/01/29 06:48:21;;;;;;;32.45;15.50;;;8.40;99.90;;;;;;5043442;28;20042;-87
2022/01/29 06:50:47;;;;;;;34.90;15.27;;;8.40;99.90;;;;;;5041838;28;20091;-87
2022/01/29 06:53:12;;;;;;;29.58;15.77;;;8.40;99.90;;;;;;5036703;28;20063;-87
2022/01/29 06:55:38;;;;;;;29.83;14.40;;;8.40;99.90;;;;;;5055486;28;20522;-87
2022/01/29 06:58:04;;;;;;;26.85;14.77;;;8.40;99.90;;;;;;5056075;28;20048;-87
2022/01/29 07:00:30;;;;;;;28.08;13.98;;;8.40;99.90;;;;;;5036298;28;20055;-87
2022/01/29 07:02:55;;;;;;;25.80;13.25;;;8.40;99.90;;;;;;5039056;28;20756;-87
2022/01/29 07:05:21;;;;;;;28.45;13.95;;;8.50;99.90;;;;;;5058643;28;20032;-88
2022/01/29 07:07:47;;;;;;;24.55;14.32;;;8.50;99.90;;;;;;5043963;28;20041;-87
2022/01/29 07:10:13;;;;;;;27.08;15.45;;;8.50;99.90;;;;;;5042810;28;20118;-87
2022/01/29 07:12:44;;;;;;;20.52;12.30;;;8.50;99.90;;;;;;5052219;28;20044;-87
2022/01/29 07:15:11;;;;;;;27.67;12.70;;;8.60;99.90;;;;;;5051686;28;20117;-87
2022/01/29 07:17:37;;;;;;;27.23;14.00;;;8.60;99.90;;;;;;5049605;28;20044;-87
2022/01/29 07:20:06;;;;;;;25.75;13.02;;;8.60;99.90;;;;;;5067399;28;20135;-87
2022/01/29 07:22:32;;;;;;;27.58;13.80;;;8.60;99.90;;;;;;5066555;28;20110;-87
2022/01/29 07:24:58;;;;;;;24.88;13.18;;;8.60;99.90;;;;;;5056138;28;20119;-87
2022/01/29 07:27:23;;;;;;;24.08;13.18;;;8.60;99.90;;;;;;5056408;28;20039;-88
2022/01/29 07:29:49;;;;;;;30.92;13.98;;;8.60;99.90;;;;;;5057691;28;20032;-87
2022/01/29 07:32:15;;;;;;;28.77;14.93;;;8.60;99.90;;;;;;5070306;28;20043;-87
2022/01/29 07:34:40;;;;;;;26.23;13.82;;;8.60;99.90;;;;;;5071611;28;20043;-87
2022/01/29 07:37:06;;;;;;;27.98;14.32;;;8.60;99.90;;;;;;5070729;28;20040;-87
2022/01/29 07:39:32;;;;;;;24.58;15.27;;;8.60;99.90;;;;;;5053809;28;20383;-87
2022/01/29 07:41:58;;;;;;;29.92;16.20;;;8.60;99.90;;;;;;5051673;28;20123;-87
2022/01/29 07:44:25;;;;;;;28.95;15.00;;;8.60;99.90;;;;;;5044978;28;20120;-84
2022/01/29 07:46:51;;;;;;;28.33;16.55;;;8.60;99.90;;;;;;5086206;28;20032;-87
2022/01/29 07:49:17;;;;;;;33.45;17.27;;;8.50;99.90;;;;;;5048670;28;20047;-87
2022/01/29 07:51:42;;;;;;;37.25;17.23;;;8.50;99.90;;;;;;5046411;28;20483;-87
2022/01/29 07:54:08;;;;;;;31.17;16.15;;;8.50;99.90;;;;;;5047409;28;20407;-87
2022/01/29 07:56:34;;;;;;;36.08;18.05;;;8.50;99.90;;;;;;5043053;28;20120;-86
2022/01/29 07:59:00;;;;;;;37.00;18.55;;;8.50;99.90;;;;;;5049206;28;20040;-86
2022/01/29 08:01:26;;;;;;;43.75;19.40;;;8.50;99.90;;;;;;5049922;28;20044;-87
2022/01/29 08:03:52;;;;;;;36.45;17.77;;;8.50;99.90;;;;;;5047792;28;20027;-86
2022/01/29 08:06:21;;;;;;;31.50;17.23;;;8.50;99.90;;;;;;5065036;28;20047;-87
2022/01/29 08:08:47;;;;;;;33.83;18.27;;;8.50;99.90;;;;;;5068527;28;20419;-87
2022/01/29 08:11:13;;;;;;;35.53;16.73;;;8.40;99.90;;;;;;5082402;28;20059;-87
2022/01/29 08:13:39;;;;;;;33.33;17.67;;;8.50;99.90;;;;;;5086908;28;20044;-87
2022/01/29 08:16:05;;;;;;;26.95;16.00;;;8.50;99.90;;;;;;5092260;28;20093;-87
2022/01/29 08:18:31;;;;;;;31.73;16.40;;;8.50;99.90;;;;;;5068744;28;20036;-87
2022/01/29 08:20:57;;;;;;;34.30;17.15;;;8.50;99.90;;;;;;5092061;27;20067;-87
2022/01/29 08:23:23;;;;;;;30.15;15.00;;;8.50;99.90;;;;;;5075162;27;20074;-87
2022/01/29 08:25:49;;;;;;;25.33;15.45;;;8.60;99.90;;;;;;5076843;28;20562;-87
2022/01/29 08:28:15;;;;;;;29.35;14.77;;;8.60;99.90;;;;;;5091559;27;20054;-87
2022/01/29 08:30:41;;;;;;;29.40;14.30;;;8.60;99.90;;;;;;5093335;28;20078;-86
2022/01/29 08:33:07;;;;;;;29.77;15.13;;;8.60;99.90;;;;;;5088073;28;20027;-87
2022/01/29 08:35:33;;;;;;;28.15;13.82;;;8.70;99.90;;;;;;5077570;28;20095;-87
2022/01/29 08:37:59;;;;;;;26.92;12.93;;;8.70;99.90;;;;;;5090966;28;20047;-84
2022/01/29 08:40:25;;;;;;;26.23;12.98;;;8.70;99.90;;;;;;5073416;28;20071;-87
2022/01/29 08:42:51;;;;;;;21.38;12.70;;;8.80;99.90;;;;;;5071308;27;20390;-87
2022/01/29 08:45:17;;;;;;;21.27;10.82;;;8.80;99.90;;;;;;5074774;28;20662;-88
2022/01/29 08:47:43;;;;;;;29.85;11.48;;;8.80;99.90;;;;;;5074871;28;20035;-89
2022/01/29 08:50:10;;;;;;;18.38;10.57;;;8.90;99.90;;;;;;5076610;28;20040;-89
2022/01/29 08:52:37;;;;;;;21.17;9.90;;;8.90;99.90;;;;;;5076596;28;20035;-88
2022/01/29 08:55:04;;;;;;;20.38;9.50;;;8.90;99.90;;;;;;5071898;28;20047;-88
2022/01/29 08:57:29;;;;;;;15.95;8.77;;;8.90;99.90;;;;;;5075074;28;20074;-89
2022/01/29 08:59:55;;;;;;;14.70;7.50;;;9.00;99.90;;;;;;5090580;28;20070;-88
2022/01/29 09:02:20;;;;;;;17.48;7.28;;;9.00;99.90;;;;;;5077266;28;20078;-89
2022/01/29 09:04:46;;;;;;;18.35;8.07;;;9.00;99.90;;;;;;5090231;28;20136;-89
2022/01/29 09:07:12;;;;;;;14.32;7.63;;;9.10;99.90;;;;;;5074014;28;20054;-89
2022/01/29 09:09:40;;;;;;;15.98;7.13;;;9.00;99.90;;;;;;5090788;28;20538;-88
2022/01/29 09:12:07;;;;;;;17.13;7.57;;;9.10;99.90;;;;;;5076170;28;20057;-89
2022/01/29 09:14:32;;;;;;;13.95;6.72;;;9.10;99.90;;;;;;5092353;28;20047;-89
2022/01/29 09:16:58;;;;;;;13.80;7.03;;;9.10;99.90;;;;;;5092988;28;20035;-88
2022/01/29 09:19:24;;;;;;;17.90;7.15;;;9.10;99.90;;;;;;5068672;27;20058;-88
2022/01/29 09:21:49;;;;;;;11.70;6.85;;;9.20;99.90;;;;;;5066712;28;20040;-88
2022/01/29 09:24:15;;;;;;;18.92;7.18;;;9.20;99.90;;;;;;5106743;28;20035;-89
2022/01/29 09:26:41;;;;;;;11.95;6.72;;;9.20;99.90;;;;;;5082520;28;20023;-88
2022/01/29 09:29:06;;;;;;;15.93;6.88;;;9.30;99.90;;;;;;5085927;28;20487;-89
2022/01/29 09:31:32;;;;;;;15.00;7.72;;;9.30;99.90;;;;;;5089087;27;20035;-89
2022/01/29 09:33:58;;;;;;;18.23;7.40;;;9.30;99.90;;;;;;5083066;28;20054;-89
2022/01/29 09:36:24;;;;;;;19.10;8.30;;;9.30;99.90;;;;;;5063746;28;20043;-89
2022/01/29 09:38:50;;;;;;;16.50;7.50;;;9.30;99.90;;;;;;5074067;28;20126;-89
2022/01/29 09:41:17;;;;;;;14.65;6.90;;;9.30;99.90;;;;;;5075740;27;20118;-89
2022/01/29 09:43:45;;;;;;;15.13;6.93;;;9.40;99.90;;;;;;5088570;28;20043;-89
2022/01/29 09:46:12;;;;;;;15.40;6.65;;;9.40;99.90;;;;;;5091008;28;20039;-89
2022/01/29 09:48:38;;;;;;;14.30;6.55;;;9.30;99.90;;;;;;5071538;28;20036;-89
2022/01/29 09:51:08;;;;;;;16.05;6.80;;;9.40;99.90;;;;;;5092836;28;20044;-88
2022/01/29 09:53:33;;;;;;;15.70;6.03;;;9.40;99.90;;;;;;5070036;28;20074;-88
2022/01/29 09:55:59;;;;;;;13.98;6.80;;;9.50;99.90;;;;;;5073185;28;20071;-88
2022/01/29 09:58:24;;;;;;;11.82;6.10;;;9.50;99.90;;;;;;5089409;28;20039;-90
2022/01/29 10:00:50;;;;;;;11.60;5.85;;;9.50;99.90;;;;;;5089520;28;20070;-88
2022/01/29 10:03:17;;;;;;;14.40;6.60;;;9.60;99.90;;;;;;5066682;28;20039;-89
2022/01/29 10:05:51;;;;;;;14.38;6.03;;;9.60;99.90;;;;;;5088780;28;20124;-88
2022/01/29 10:08:18;;;;;;;12.88;6.13;;;9.60;99.90;;;;;;5071978;28;20077;-88
2022/01/29 10:10:49;;;;;;;11.70;5.50;;;9.60;99.90;;;;;;5073918;28;20056;-86
2022/01/29 10:13:29;;;;;;;9.77;5.07;;;9.60;99.90;;;;;;5071512;28;20520;-89
2022/01/29 10:16:15;;;;;;;14.60;6.10;;;9.60;99.90;;;;;;5071735;28;20387;-88
2022/01/29 10:18:45;;;;;;;14.95;5.10;;;9.70;99.90;;;;;;5120664;27;20043;-89
2022/01/29 10:21:16;;;;;;;10.15;5.20;;;9.70;99.90;;;;;;5072840;28;20494;-88
2022/01/29 10:23:44;;;;;;;17.77;6.03;;;9.70;99.90;;;;;;5069260;28;20057;-86
2022/01/29 10:26:10;;;;;;;11.65;5.07;;;9.70;99.90;;;;;;5072025;28;20151;-89
2022/01/29 10:28:37;;;;;;;18.10;6.18;;;9.70;99.90;;;;;;5073578;28;20042;-87
2022/01/29 10:31:08;;;;;;;15.27;5.93;;;9.70;99.90;;;;;;5089252;28;20460;-88
2022/01/29 10:33:39;;;;;;;14.73;5.30;;;9.70;99.90;;;;;;5071225;28;20035;-88
2022/01/29 10:36:14;;;;;;;8.30;4.82;;;9.80;99.90;;;;;;5090256;28;20043;-89
2022/01/29 10:38:40;;;;;;;14.38;5.20;;;9.70;99.90;;;;;;5090961;28;20043;-88
2022/01/29 10:41:22;;;;;;;9.23;4.85;;;9.70;99.90;;;;;;5073649;28;20036;-88
2022/01/29 10:44:20;;;;;;;14.05;4.88;;;9.80;99.90;;;;;;5072326;28;20035;-89
2022/01/29 10:46:57;;;;;;;11.73;4.70;;;9.70;99.90;;;;;;5079845;28;20032;-89
2022/01/29 10:49:33;;;;;;;14.68;4.72;;;9.70;99.90;;;;;;5095526;28;20055;-88
2022/01/29 10:52:05;;;;;;;15.25;5.63;;;9.80;99.90;;;;;;5066389;28;20333;-85
2022/01/29 10:54:36;;;;;;;12.68;4.43;;;9.80;99.90;;;;;;5089356;28;20075;-88
2022/01/29 10:57:14;;;;;;;12.93;4.90;;;9.80;99.90;;;;;;5088774;28;20075;-88
2022/01/29 10:59:52;;;;;;;11.32;4.50;;;9.80;99.90;;;;;;5085505;28;20088;-88
2022/01/29 11:02:29;;;;;;;17.95;5.75;;;9.80;99.90;;;;;;5090808;28;20039;-87
2022/01/29 11:04:55;;;;;;;14.30;5.13;;;9.80;99.90;;;;;;5067569;28;20027;-89
2022/01/29 11:07:27;;;;;;;15.27;4.63;;;9.80;99.90;;;;;;5065715;28;20753;-88
2022/01/29 11:09:53;;;;;;;11.55;4.68;;;9.70;99.90;;;;;;5064044;28;20722;-88
2022/01/29 11:12:25;;;;;;;13.68;3.78;;;9.70;99.90;;;;;;5085216;28;20044;-88
2022/01/29 11:14:58;;;;;;;14.15;4.10;;;9.80;99.90;;;;;;5056822;28;20040;-88
2022/01/29 11:17:24;;;;;;;14.13;5.05;;;9.70;99.90;;;;;;5067590;28;20028;-88
2022/01/29 11:19:50;;;;;;;10.18;3.70;;;9.80;99.90;;;;;;5082560;28;20089;-88
2022/01/29 11:22:45;;;;;;;9.25;3.70;;;9.80;99.90;;;;;;5080193;28;20035;-88
2022/01/29 11:25:15;;;;;;;11.05;3.67;;;9.80;99.90;;;;;;5085964;28;20416;-88
2022/01/29 11:27:41;;;;;;;15.80;4.22;;;9.80;99.90;;;;;;5074664;28;20063;-88
2022/01/29 11:30:12;;;;;;;15.73;4.20;;;9.80;99.90;;;;;;5088574;28;20041;-88
2022/01/29 11:32:45;;;;;;;11.10;4.43;;;9.80;99.90;;;;;;5082090;28;20032;-89
2022/01/29 11:35:15;;;;;;;8.68;3.88;;;9.80;99.90;;;;;;5081808;28;20674;-90
2022/01/29 11:37:45;;;;;;;14.90;4.20;;;9.90;99.90;;;;;;5088426;28;20027;-88
2022/01/29 11:40:29;;;;;;;8.95;3.53;;;9.80;99.90;;;;;;5072572;28;20039;-89
2022/01/29 11:43:12;;;;;;;7.55;3.40;;;9.90;99.90;;;;;;5063681;28;20040;-87
2022/01/29 11:46:05;;;;;;;12.05;3.53;;;9.90;99.90;;;;;;5075411;28;20039;-88
2022/01/29 11:48:37;;;;;;;11.32;4.20;;;9.90;99.90;;;;;;5103637;28;20047;-89
2022/01/29 11:51:06;;;;;;;12.70;4.18;;;9.90;99.90;;;;;;5073086;28;20043;-88
2022/01/29 11:53:48;;;;;;;11.35;3.88;;;9.90;99.90;;;;;;5086105;28;20039;-87
2022/01/29 11:56:31;;;;;;;11.93;3.55;;;9.90;99.90;;;;;;5064304;28;20077;-88
2022/01/29 11:59:27;;;;;;;10.60;4.20;;;9.90;99.90;;;;;;5092107;28;20491;-88
2022/01/29 12:01:58;;;;;;;;;;;10.00;99.90;;;;;;5069171;27;20080;-87
2022/01/29 12:05:04;;;;;;;18.23;4.32;;;9.90;99.90;;;;;;5073730;28;19980;-88
2022/01/29 12:10:05;;;;;;;10.73;3.03;;;10.00;99.90;;;;;;5083977;28;20048;-89
2022/01/29 12:12:33;;;;;;;10.32;3.35;;;10.00;99.90;;;;;;5074809;28;20436;-89
2022/01/29 12:15:11;;;;;;;9.48;3.05;;;10.10;99.90;;;;;;5092061;28;20043;-84
2022/01/29 12:17:46;;;;;;;9.00;3.30;;;10.10;99.90;;;;;;5074234;28;20071;-89
2022/01/29 12:20:20;;;;;;;34.22;15.48;;;10.10;99.90;;;;;;5079202;27;20122;-89
2022/01/29 12:22:47;;;;;;;33.08;19.63;;;10.20;99.90;;;;;;5073212;28;20047;-88
2022/01/29 12:25:15;;;;;;;33.35;14.00;;;10.20;99.90;;;;;;5072072;28;20031;-90
2022/01/29 12:27:50;;;;;;;23.98;11.40;;;10.20;99.90;;;;;;5085931;28;20036;-90
2022/01/29 12:30:24;;;;;;;18.70;8.48;;;10.30;99.90;;;;;;5072078;28;20046;-88
2022/01/29 12:33:20;;;;;;;39.10;17.77;;;10.20;99.90;;;;;;5064759;28;20046;-90
2022/01/29 12:35:49;;;;;;;41.78;26.30;;;10.20;99.90;;;;;;5087249;27;20043;-90
2022/01/29 12:38:23;;;;;;;20.45;10.23;;;10.20;99.90;;;;;;5068235;27;20687;-88
2022/01/29 12:40:59;;;;;;;24.17;14.40;;;10.30;99.90;;;;;;5066053;28;20043;-89
2022/01/29 12:43:40;;;;;;;19.27;8.10;;;10.30;99.90;;;;;;5082005;28;20432;-88
2022/01/29 12:46:08;;;;;;;13.00;4.68;;;10.40;99.90;;;;;;5092913;27;20449;-83
2022/01/29 12:48:38;;;;;;;41.95;26.48;;;10.40;99.90;;;;;;5069214;28;20395;-89
2022/01/29 12:51:05;;;;;;;35.03;20.48;;;10.40;99.90;;;;;;5109545;28;20047;-89
2022/01/29 12:53:31;;;;;;;17.73;9.75;;;10.40;99.90;;;;;;5090366;27;20126;-87
2022/01/29 12:56:13;;;;;;;20.48;8.32;;;10.40;99.90;;;;;;5066320;28;20051;-88
2022/01/29 12:58:41;;;;;;;15.57;7.00;;;10.40;99.90;;;;;;5089197;28;20039;-88
2022/01/29 13:01:14;;;;;;;13.63;6.22;;;10.50;99.90;;;;;;5074107;27;20040;-89